createdAt,value
2023-04-15T00:01:02.583Z,96655.38
2023-04-15T00:03:31.140Z,96660.09
2023-04-15T00:05:59.915Z,96658.47
2023-04-15T00:08:28.782Z,96658.47
2023-04-15T00:10:59.374Z,96658.47
2023-04-15T00:13:27.874Z,96658.47
2023-04-15T00:15:58.084Z,96657.66
2023-04-15T00:18:26.725Z,96669.00
2023-04-15T00:20:55.091Z,96654.44
2023-04-15T00:23:23.521Z,96655.25
2023-04-15T00:25:52.019Z,96660.75
2023-04-15T00:28:20.952Z,96664.66
2023-04-15T00:30:49.569Z,96661.91
2023-04-15T00:33:19.327Z,96652.03
2023-04-15T00:35:48.649Z,96650.41
2023-04-15T00:38:17.721Z,96652.03
2023-04-15T00:40:46.668Z,96651.22
2023-04-15T00:43:16.408Z,96659.47
2023-04-15T00:45:47.103Z,96655.13
2023-04-15T00:48:16.396Z,96649.94
2023-04-15T00:50:46.130Z,96654.31
2023-04-15T00:53:14.461Z,96654.31
2023-04-15T00:55:43.497Z,96658.19
2023-04-15T00:58:11.991Z,96652.69
2023-04-15T01:00:40.871Z,96658.19
2023-04-15T01:03:09.803Z,96655.44
2023-04-15T01:05:39.525Z,96652.69
2023-04-15T01:08:09.780Z,96656.59
2023-04-15T01:10:38.187Z,96654.97
2023-04-15T01:13:06.764Z,96657.72
2023-04-15T01:15:36.959Z,96657.72
2023-04-15T01:18:07.451Z,96660.47
2023-04-15T01:20:36.923Z,96654.16
2023-04-15T01:23:06.079Z,96650.63
2023-04-15T01:25:37.035Z,96642.22
2023-04-15T01:28:06.003Z,96647.88
2023-04-15T01:30:35.701Z,96650.16
2023-04-15T01:33:04.226Z,96652.56
2023-04-15T01:35:51.641Z,96645.78
2023-04-15T01:38:20.518Z,96647.38
2023-04-15T01:40:50.282Z,96649.34
2023-04-15T01:43:20.086Z,96644.63
2023-04-15T01:45:49.680Z,96649.34
2023-04-15T01:48:19.727Z,96641.41
2023-04-15T01:50:49.682Z,96643.03
2023-04-15T01:53:19.807Z,96636.72
2023-04-15T01:55:51.330Z,96630.41
2023-04-15T01:58:21.963Z,96634.31
2023-04-15T02:00:51.797Z,96630.41
2023-04-15T02:03:21.752Z,96635.44
2023-04-15T02:05:52.078Z,96641.41
2023-04-15T02:08:21.796Z,96645.31
2023-04-15T02:10:53.131Z,96646.44
2023-04-15T02:13:23.157Z,96651.97
2023-04-15T02:15:53.421Z,96638.19
2023-04-15T02:18:23.005Z,96638.19
2023-04-15T02:20:53.486Z,96638.19
2023-04-15T02:23:23.109Z,96639.34
2023-04-15T02:25:54.426Z,96635.44
2023-04-15T02:28:24.110Z,96627.53
2023-04-15T02:30:55.718Z,96627.19
2023-04-15T02:33:26.155Z,96625.56
2023-04-15T02:35:55.740Z,96623.97
2023-04-15T02:38:25.535Z,96626.72
2023-04-15T02:40:57.565Z,96631.41
2023-04-15T02:43:27.237Z,96622.34
2023-04-15T02:45:57.062Z,96633.34
2023-04-15T02:48:27.040Z,96632.56
2023-04-15T02:51:19.593Z,96633.34
2023-04-15T02:53:50.147Z,96640.81
2023-04-15T02:56:23.319Z,96638.06
2023-04-15T02:58:56.108Z,96642.75
2023-04-15T03:01:27.275Z,96649.88
2023-04-15T03:03:57.198Z,96649.06
2023-04-15T03:06:27.033Z,96649.41
2023-04-15T03:08:56.954Z,96653.75
2023-04-15T03:11:29.826Z,96646.66
2023-04-15T03:13:59.889Z,96648.59
2023-04-15T03:16:34.788Z,96657.66
2023-04-15T03:19:04.428Z,96645.84
2023-04-15T03:21:35.473Z,96651.69
2023-04-15T03:24:06.021Z,96643.44
2023-04-15T03:26:37.067Z,96647.78
2023-04-15T03:29:13.560Z,96645.03
2023-04-15T03:31:43.669Z,96643.44
2023-04-15T03:34:14.356Z,96637.91
2023-04-15T03:36:44.058Z,96631.63
2023-04-15T03:39:13.739Z,96634.38
2023-04-15T03:41:44.729Z,96636.31
2023-04-15T03:44:14.381Z,96637.13
2023-04-15T03:46:44.100Z,96636.31
2023-04-15T03:49:15.372Z,96634.69
2023-04-15T03:51:45.230Z,96629.19
2023-04-15T03:54:15.284Z,96635.50
2023-04-15T03:56:46.590Z,96636.31
2023-04-15T03:59:16.560Z,96641.00
2023-04-15T04:01:46.280Z,96641.81
2023-04-15T04:04:15.954Z,96635.50
2023-04-15T04:06:45.675Z,96641.81
2023-04-15T04:09:15.487Z,96636.31
2023-04-15T04:11:46.738Z,96641.00
2023-04-15T04:14:16.411Z,96645.69
2023-04-15T04:16:46.535Z,96647.31
2023-04-15T04:19:19.550Z,96648.47
2023-04-15T04:21:49.229Z,96644.09
2023-04-15T04:24:18.922Z,96645.69
2023-04-15T04:26:49.973Z,96643.28
2023-04-15T04:29:19.650Z,96644.09
2023-04-15T04:31:49.413Z,96651.53
2023-04-15T04:34:19.133Z,96649.59
2023-04-15T04:36:48.755Z,96659.78
2023-04-15T04:39:18.447Z,96658.19
2023-04-15T04:41:48.168Z,96659.00
2023-04-15T04:44:19.334Z,96664.50
2023-04-15T04:46:48.988Z,96658.19
2023-04-15T04:49:18.631Z,96665.63
2023-04-15T04:51:48.908Z,96663.69
2023-04-15T04:54:18.608Z,96665.63
2023-04-15T04:56:48.232Z,96665.63
2023-04-15T04:59:19.590Z,96666.78
2023-04-15T05:01:49.422Z,96673.09
2023-04-15T05:04:19.637Z,96665.97
2023-04-15T05:06:49.297Z,96673.88
2023-04-15T05:09:19.159Z,96666.78
2023-04-15T05:11:48.863Z,96660.47
2023-04-15T05:14:21.167Z,96668.72
2023-04-15T05:16:52.426Z,96665.97
2023-04-15T05:19:22.035Z,96672.28
2023-04-15T05:21:51.653Z,96666.78
2023-04-15T05:24:21.448Z,96656.44
2023-04-15T05:26:51.092Z,96665.16
2023-04-15T05:29:22.170Z,96671.47
2023-04-15T05:31:51.953Z,96673.41
2023-04-15T05:34:21.711Z,96673.41
2023-04-15T05:36:52.529Z,96678.13
2023-04-15T05:39:22.160Z,96678.91
2023-04-15T05:41:52.112Z,96677.31
2023-04-15T05:44:23.085Z,96682.47
2023-04-15T05:46:52.739Z,96687.97
2023-04-15T05:49:22.380Z,96687.97
2023-04-15T05:51:52.088Z,96681.66
2023-04-15T05:54:22.568Z,96689.44
2023-04-15T05:56:52.273Z,96684.63
2023-04-15T05:59:23.241Z,96692.88
2023-04-15T06:01:53.321Z,96694.00
2023-04-15T06:04:23.062Z,96689.31
2023-04-15T06:06:52.795Z,96696.44
2023-04-15T06:09:22.853Z,96696.91
2023-04-15T06:11:53.024Z,96693.34
2023-04-15T06:14:24.269Z,96697.72
2023-04-15T06:16:53.940Z,96693.81
2023-04-15T06:19:23.595Z,96689.94
2023-04-15T06:21:53.333Z,96689.94
2023-04-15T06:24:23.057Z,96694.28
2023-04-15T06:26:52.712Z,96699.78
2023-04-15T06:29:23.713Z,96706.09
2023-04-15T06:31:53.418Z,96706.91
2023-04-15T06:34:23.239Z,96694.28
2023-04-15T06:36:52.910Z,96698.66
2023-04-15T06:39:22.499Z,96693.16
2023-04-15T06:41:52.393Z,96699.47
2023-04-15T06:44:25.858Z,96703.03
2023-04-15T06:46:55.609Z,96709.34
2023-04-15T06:49:25.495Z,96708.53
2023-04-15T06:51:55.112Z,96704.63
2023-04-15T06:54:24.713Z,96698.31
2023-04-15T06:56:54.510Z,96703.03
2023-04-15T06:59:25.474Z,96704.63
2023-04-15T07:01:55.136Z,96704.63
2023-04-15T07:04:25.717Z,96703.50
2023-04-15T07:06:55.494Z,96698.00
2023-04-15T07:09:25.653Z,96700.75
2023-04-15T07:11:55.366Z,96705.91
2023-04-15T07:14:26.463Z,96703.50
2023-04-15T07:16:56.387Z,96703.97
2023-04-15T07:19:26.546Z,96702.81
2023-04-15T07:21:56.599Z,96700.88
2023-04-15T07:24:26.803Z,96698.94
2023-04-15T07:26:58.638Z,96696.19
2023-04-15T07:29:31.489Z,96697.78
2023-04-15T07:32:01.091Z,96693.09
2023-04-15T07:34:31.494Z,96693.91
2023-04-15T07:37:02.269Z,96692.28
2023-04-15T07:39:32.115Z,96688.41
2023-04-15T07:42:02.104Z,96695.53
2023-04-15T07:44:33.220Z,96682.09
2023-04-15T07:47:04.264Z,96682.91
2023-04-15T07:49:34.005Z,96683.69
2023-04-15T07:52:03.736Z,96688.06
2023-04-15T07:54:33.313Z,96690.00
2023-04-15T07:57:03.075Z,96691.97
2023-04-15T07:59:34.242Z,96684.50
2023-04-15T08:02:04.504Z,96684.50
2023-04-15T08:04:34.411Z,96685.31
2023-04-15T08:07:04.846Z,96682.22
2023-04-15T08:09:34.522Z,96679.81
2023-04-15T08:12:04.813Z,96672.34
2023-04-15T08:14:36.306Z,96675.13
2023-04-15T08:17:06.629Z,96673.97
2023-04-15T08:19:36.394Z,96671.22
2023-04-15T08:22:06.605Z,96671.22
2023-04-15T08:24:40.849Z,96667.31
2023-04-15T08:27:10.604Z,96673.97
2023-04-15T08:29:41.692Z,96673.97
2023-04-15T08:32:11.411Z,96672.84
2023-04-15T08:34:41.122Z,96665.72
2023-04-15T08:37:11.478Z,96672.84
2023-04-15T08:39:42.240Z,96674.44
2023-04-15T08:42:17.324Z,96674.44
2023-04-15T08:44:49.279Z,96668.94
2023-04-15T08:47:22.530Z,96663.09
2023-04-15T08:49:55.019Z,96664.25
2023-04-15T08:52:26.964Z,96667.81
2023-04-15T08:54:59.115Z,96661.16
2023-04-15T08:57:29.816Z,96669.06
2023-04-15T09:00:05.713Z,96663.91
2023-04-15T09:02:36.121Z,96666.66
2023-04-15T09:05:07.011Z,96669.41
2023-04-15T09:07:36.829Z,96665.03
2023-04-15T09:10:07.602Z,96672.16
2023-04-15T09:12:37.855Z,96665.03
2023-04-15T09:15:13.258Z,96668.94
2023-04-15T09:17:44.761Z,96674.44
2023-04-15T09:20:16.291Z,96665.72
2023-04-15T09:22:47.588Z,96666.19
2023-04-15T09:25:28.243Z,96665.03
2023-04-15T09:27:59.292Z,96676.06
2023-04-15T09:30:30.769Z,96672.16
2023-04-15T09:33:02.276Z,96671.34
2023-04-15T09:35:32.028Z,96677.66
2023-04-15T09:38:04.794Z,96673.78
2023-04-15T09:40:36.418Z,96676.19
2023-04-15T09:43:07.381Z,96674.59
2023-04-15T09:45:38.677Z,96675.38
2023-04-15T09:48:20.785Z,96672.16
2023-04-15T09:50:53.563Z,96668.28
2023-04-15T09:53:25.627Z,96657.25
2023-04-15T09:55:56.426Z,96675.38
2023-04-15T09:58:27.669Z,96671.81
2023-04-15T10:01:00.472Z,96669.06
2023-04-15T10:03:33.264Z,96663.56
2023-04-15T10:06:03.610Z,96667.47
2023-04-15T10:08:35.762Z,96661.16
2023-04-15T10:11:06.457Z,96669.06
2023-04-15T10:13:38.059Z,96669.41
2023-04-15T10:16:12.492Z,96678.34
2023-04-15T10:18:44.810Z,96673.78
2023-04-15T10:21:18.450Z,96673.31
2023-04-15T10:23:48.777Z,96677.66
2023-04-15T10:26:18.912Z,96681.22
2023-04-15T10:28:48.891Z,96672.97
2023-04-15T10:31:20.980Z,96678.47
2023-04-15T10:33:51.599Z,96671.81
2023-04-15T10:36:22.082Z,96674.91
2023-04-15T10:38:52.118Z,96675.72
2023-04-15T10:41:23.700Z,96672.97
2023-04-15T10:43:55.948Z,96689.47
2023-04-15T10:46:38.196Z,96671.34
2023-04-15T10:49:11.128Z,96677.66
2023-04-15T10:51:42.493Z,96676.06
2023-04-15T10:54:15.804Z,96683.16
2023-04-15T10:56:46.412Z,96680.41
2023-04-15T10:59:17.717Z,96684.13
2023-04-15T11:01:57.515Z,96683.25
2023-04-15T11:04:52.492Z,96691.13
2023-04-15T11:07:39.003Z,96675.78
2023-04-15T11:10:51.447Z,96684.50
2023-04-15T11:13:23.703Z,96684.41
2023-04-15T11:15:58.188Z,96681.44
2023-04-15T11:18:31.749Z,96684.66
2023-04-15T11:21:04.538Z,96691.78
2023-04-15T11:23:38.090Z,96690.44
2023-04-15T11:26:11.862Z,96700.91
2023-04-15T11:28:43.231Z,96701.50
2023-04-15T11:31:14.463Z,96698.75
2023-04-15T11:33:56.479Z,96711.38
2023-04-15T11:36:28.249Z,96709.06
2023-04-15T11:38:59.488Z,96709.06
2023-04-15T11:41:29.229Z,96713.91
2023-04-15T11:43:58.856Z,96710.69
2023-04-15T11:46:32.541Z,96720.09
2023-04-15T11:49:04.816Z,96721.50
2023-04-15T11:51:35.421Z,96728.41
2023-04-15T11:54:04.469Z,96728.19
2023-04-15T11:56:33.332Z,96725.56
2023-04-15T11:59:02.183Z,96727.75
2023-04-15T12:01:35.062Z,96732.81
2023-04-15T12:04:12.815Z,96731.41
2023-04-15T12:06:41.598Z,96735.31
2023-04-15T12:09:12.213Z,96740.38
2023-04-15T12:11:45.138Z,96741.50
2023-04-15T12:14:21.044Z,96739.56
2023-04-15T12:16:51.815Z,96744.28
2023-04-15T12:19:26.425Z,96756.78
2023-04-15T12:22:00.233Z,96755.03
2023-04-15T12:24:31.906Z,96757.31
2023-04-15T12:27:04.416Z,96751.69
2023-04-15T12:29:35.070Z,96759.47
2023-04-15T12:32:06.997Z,96762.13
2023-04-15T12:34:38.099Z,96767.19
2023-04-15T12:37:07.985Z,96770.28
2023-04-15T12:39:37.649Z,96776.47
2023-04-15T12:42:06.515Z,96780.34
2023-04-15T12:44:36.233Z,96778.75
2023-04-15T12:47:05.078Z,96785.41
2023-04-15T12:49:34.077Z,96782.97
2023-04-15T12:52:04.541Z,96796.28
2023-04-15T12:54:33.177Z,96804.09
2023-04-15T12:57:04.702Z,96804.41
2023-04-15T12:59:35.571Z,96808.66
2023-04-15T13:02:04.988Z,96815.63
2023-04-15T13:04:33.778Z,96811.28
2023-04-15T13:07:04.218Z,96816.63
2023-04-15T13:09:32.762Z,96816.16
2023-04-15T13:12:01.983Z,96823.16
2023-04-15T13:14:30.521Z,96832.56
2023-04-15T13:16:59.029Z,96843.91
2023-04-15T13:19:27.635Z,96842.28
2023-04-15T13:21:56.097Z,96854.44
2023-04-15T13:24:26.010Z,96857.88
2023-04-15T13:26:55.995Z,96857.88
2023-04-15T13:29:24.468Z,96873.59
2023-04-15T13:31:52.977Z,96879.41
2023-04-15T13:34:21.381Z,96873.09
2023-04-15T13:36:49.999Z,96879.72
2023-04-15T13:39:18.392Z,96895.44
2023-04-15T13:41:48.421Z,96893.03
2023-04-15T13:44:17.360Z,96895.31
2023-04-15T13:46:47.176Z,96898.38
2023-04-15T13:49:15.778Z,96902.28
2023-04-15T13:51:44.206Z,96899.06
2023-04-15T13:54:12.764Z,96895.81
2023-04-15T13:56:41.203Z,96908.78
2023-04-15T13:59:10.997Z,96913.97
2023-04-15T14:01:41.291Z,96910.88
2023-04-15T14:04:10.183Z,96909.88
2023-04-15T14:06:38.928Z,96908.09
2023-04-15T14:09:07.577Z,96916.19
2023-04-15T14:11:36.804Z,96900.63
2023-04-15T14:14:05.550Z,96902.38
2023-04-15T14:16:36.129Z,96912.06
2023-04-15T14:19:04.982Z,96911.06
2023-04-15T14:21:33.688Z,96903.75
2023-04-15T14:24:02.186Z,96911.81
2023-04-15T14:26:30.706Z,96906.44
2023-04-15T14:28:59.200Z,96904.97
2023-04-15T14:31:27.724Z,96909.34
2023-04-15T14:33:57.556Z,96912.59
2023-04-15T14:36:25.976Z,96911.31
2023-04-15T14:38:54.528Z,96918.28
2023-04-15T14:41:23.374Z,96923.31
2023-04-15T14:43:51.883Z,96921.22
2023-04-15T14:46:20.583Z,96925.00
2023-04-15T14:48:49.214Z,96932.13
2023-04-15T14:51:19.110Z,96937.63
2023-04-15T14:53:47.534Z,96932.25
2023-04-15T14:56:16.401Z,96941.81
2023-04-15T14:58:44.832Z,96938.72
2023-04-15T15:01:13.416Z,96945.84
2023-04-15T15:03:42.324Z,96951.34
2023-04-15T15:06:11.025Z,96956.41
2023-04-15T15:08:40.892Z,96965.13
2023-04-15T15:11:09.426Z,96963.53
2023-04-15T15:13:38.106Z,96969.84
2023-04-15T15:16:07.130Z,96972.06
2023-04-15T15:18:36.643Z,96969.09
2023-04-15T15:21:05.466Z,96970.72
2023-04-15T15:23:33.936Z,96974.91
2023-04-15T15:26:03.847Z,96974.22
2023-04-15T15:28:32.347Z,96983.59
2023-04-15T15:31:01.588Z,96973.84
2023-04-15T15:33:30.384Z,96976.41
2023-04-15T15:35:59.110Z,96989.19
2023-04-15T15:38:27.587Z,96989.81
2023-04-15T15:40:56.091Z,96994.81
2023-04-15T15:43:25.991Z,97004.03
2023-04-15T15:45:55.509Z,97004.16
2023-04-15T15:48:24.297Z,97014.53
2023-04-15T15:50:53.289Z,97012.72
2023-04-15T15:53:24.167Z,97016.28
2023-04-15T15:55:58.585Z,97019.84
2023-04-15T15:58:28.387Z,97024.38
2023-04-15T16:00:56.914Z,97025.78
2023-04-15T16:03:25.457Z,97036.50
2023-04-15T16:05:54.095Z,97026.88
2023-04-15T16:08:22.584Z,97039.19
2023-04-15T16:10:51.098Z,97037.50
2023-04-15T16:13:19.575Z,97044.31
2023-04-15T16:15:58.532Z,97038.91
2023-04-15T16:18:27.007Z,97046.72
2023-04-15T16:20:55.467Z,97048.34
2023-04-15T16:23:24.057Z,97053.53
2023-04-15T16:25:52.588Z,97059.31
2023-04-15T16:28:26.743Z,97063.34
2023-04-15T16:30:57.014Z,97068.66
2023-04-15T16:33:27.461Z,97075.81
2023-04-15T16:35:55.899Z,97094.47
2023-04-15T16:38:24.287Z,97085.16
2023-04-15T16:40:52.812Z,97091.84
2023-04-15T16:43:21.417Z,97095.91
2023-04-15T16:45:51.377Z,97108.41
2023-04-15T16:48:21.033Z,97112.84
2023-04-15T16:50:50.887Z,97115.34
2023-04-15T16:53:19.623Z,97124.75
2023-04-15T16:55:48.062Z,97129.81
2023-04-15T16:58:16.814Z,97128.19
2023-04-15T17:00:45.418Z,97136.47
2023-04-15T17:03:14.065Z,97135.19
2023-04-15T17:05:42.788Z,97136.66
2023-04-15T17:08:12.589Z,97142.19
2023-04-15T17:10:41.123Z,97141.53
2023-04-15T17:13:09.591Z,97141.66
2023-04-15T17:15:38.134Z,97144.09
2023-04-15T17:18:23.469Z,97142.94
2023-04-15T17:21:06.088Z,97144.44
2023-04-15T17:23:36.301Z,97143.47
2023-04-15T17:26:04.969Z,97150.94
2023-04-15T17:28:33.629Z,97157.28
2023-04-15T17:31:06.196Z,97159.56
2023-04-15T17:34:03.988Z,97156.34
2023-04-15T17:36:38.557Z,97169.53
2023-04-15T17:39:28.283Z,97174.09
2023-04-15T17:42:16.928Z,97177.03
2023-04-15T17:45:06.247Z,97185.78
2023-04-15T17:47:54.654Z,97183.66
2023-04-15T17:50:43.074Z,97192.88
2023-04-15T17:53:31.481Z,97190.25
2023-04-15T17:56:21.262Z,97192.69
2023-04-15T17:59:09.926Z,97194.31
2023-04-15T18:01:59.508Z,97194.31
2023-04-15T18:04:48.078Z,97196.41
2023-04-15T18:07:37.048Z,97200.94
2023-04-15T18:10:25.508Z,97208.06
2023-04-15T18:13:15.315Z,97216.81
2023-04-15T18:16:03.752Z,97217.00
2023-04-15T18:18:52.209Z,97221.59
2023-04-15T18:21:20.896Z,97223.41
2023-04-15T18:23:49.370Z,97221.63
2023-04-15T18:26:17.815Z,97232.53
2023-04-15T18:28:47.657Z,97232.72
2023-04-15T18:31:16.165Z,97233.72
2023-04-15T18:33:44.681Z,97233.56
2023-04-15T18:36:13.125Z,97243.31
2023-04-15T18:38:41.935Z,97250.28
2023-04-15T18:41:10.369Z,97244.31
2023-04-15T18:43:38.854Z,97252.09
2023-04-15T18:46:11.814Z,97261.03
2023-04-15T18:48:40.380Z,97266.88
2023-04-15T18:51:08.853Z,97276.97
2023-04-15T18:53:37.337Z,97274.03
2023-04-15T18:56:06.640Z,97275.03
2023-04-15T18:59:27.134Z,97279.59
2023-04-15T19:01:24.945Z,97285.25
2023-04-15T19:03:53.535Z,97289.47
2023-04-15T19:06:22.215Z,97299.53
2023-04-15T19:08:50.896Z,97297.41
2023-04-15T19:11:19.297Z,97306.34
2023-04-15T19:13:47.809Z,97307.00
2023-04-15T19:16:16.403Z,97313.16
2023-04-15T19:18:46.256Z,97310.25
2023-04-15T19:21:15.056Z,97314.47
2023-04-15T19:23:43.805Z,97319.81
2023-04-15T19:26:13.243Z,97319.66
2023-04-15T19:28:41.722Z,97323.56
2023-04-15T19:31:10.263Z,97329.72
2023-04-15T19:33:39.317Z,97328.09
2023-04-15T19:36:09.195Z,97330.41
2023-04-15T19:38:37.774Z,97337.03
2023-04-15T19:41:06.331Z,97333.78
2023-04-15T19:43:34.794Z,97330.22
2023-04-15T19:46:03.361Z,97345.97
2023-04-15T19:48:32.026Z,97337.19
2023-04-15T19:51:00.612Z,97334.78
2023-04-15T19:53:30.495Z,97335.91
2023-04-15T19:55:59.023Z,97334.59
2023-04-15T19:58:27.483Z,97329.09
2023-04-15T20:00:56.138Z,97336.22
2023-04-15T20:03:24.821Z,97334.78
2023-04-15T20:05:53.499Z,97341.56
2023-04-15T20:08:21.983Z,97343.69
2023-04-15T20:10:51.762Z,97344.50
2023-04-15T20:13:20.236Z,97345.97
2023-04-15T20:15:48.695Z,97339.47
2023-04-15T20:18:17.229Z,97330.53
2023-04-15T20:20:46.412Z,97332.66
2023-04-15T20:23:14.956Z,97327.28
2023-04-15T20:25:43.626Z,97337.81
2023-04-15T20:28:13.739Z,97332.97
2023-04-15T20:30:42.269Z,97335.22
2023-04-15T20:33:10.878Z,97343.00
2023-04-15T20:35:39.392Z,97335.06
2023-04-15T20:38:07.869Z,97342.03
2023-04-15T20:40:36.409Z,97342.34
2023-04-15T20:43:04.907Z,97348.16
2023-04-15T20:45:34.718Z,97346.53
2023-04-15T20:48:03.246Z,97347.16
2023-04-15T20:50:31.752Z,97346.03
2023-04-15T20:53:00.245Z,97353.47
2023-04-15T20:55:30.701Z,97354.13
2023-04-15T20:58:00.047Z,97363.50
2023-04-15T21:00:29.274Z,97353.13
2023-04-15T21:02:59.298Z,97364.47
2023-04-15T21:05:27.844Z,97362.03
2023-04-15T21:07:56.410Z,97366.72
2023-04-15T21:10:25.255Z,97366.72
2023-04-15T21:12:53.759Z,97379.69
2023-04-15T21:15:22.520Z,97378.88
2023-04-15T21:17:51.116Z,97372.56
2023-04-15T21:20:21.284Z,97377.25
2023-04-15T21:22:49.768Z,97378.88
2023-04-15T21:25:18.326Z,97376.44
2023-04-15T21:27:46.797Z,97387.47
2023-04-15T21:30:15.227Z,97387.78
2023-04-15T21:32:43.684Z,97396.03
2023-04-15T21:35:12.284Z,97396.03
2023-04-15T21:37:42.118Z,97397.16
2023-04-15T21:40:11.587Z,97392.78
2023-04-15T21:42:40.007Z,97398.31
2023-04-15T21:45:09.129Z,97396.69
2023-04-15T21:48:06.345Z,97402.19
2023-04-15T21:50:25.963Z,97402.19
2023-04-15T21:52:56.107Z,97406.88
2023-04-15T21:55:24.734Z,97406.88
2023-04-15T21:57:53.130Z,97410.75
2023-04-15T22:00:23.002Z,97408.31
2023-04-15T22:02:51.737Z,97414.66
2023-04-15T22:05:20.382Z,97417.41
2023-04-15T22:07:48.811Z,97416.59
2023-04-15T22:10:19.519Z,97417.72
2023-04-15T22:12:47.932Z,97425.97
2023-04-15T22:15:17.718Z,97428.72
2023-04-15T22:17:46.775Z,97425.16
2023-04-15T22:20:15.501Z,97414.47
2023-04-15T22:22:44.852Z,97416.41
2023-04-15T22:25:13.594Z,97419.97
2023-04-15T22:27:43.328Z,97428.56
2023-04-15T22:30:12.665Z,97432.94
2023-04-15T22:32:42.233Z,97432.13
2023-04-15T22:35:10.973Z,97438.75
2023-04-15T22:37:39.556Z,97438.75
2023-04-15T22:40:09.069Z,97443.44
2023-04-15T22:42:37.478Z,97437.94
2023-04-15T22:45:08.852Z,97443.44
2023-04-15T22:47:37.477Z,97441.81
2023-04-15T22:50:07.131Z,97441.00
2023-04-15T22:52:35.716Z,97433.88
2023-04-15T22:55:04.340Z,97440.19
2023-04-15T22:57:32.760Z,97437.75
2023-04-15T23:00:01.240Z,97446.84
2023-04-15T23:02:31.525Z,97448.78
2023-04-15T23:05:01.611Z,97443.28
2023-04-15T23:07:34.763Z,97444.41
2023-04-15T23:10:03.192Z,97445.53
2023-04-15T23:12:31.633Z,97453.47
2023-04-15T23:15:00.043Z,97449.09
2023-04-15T23:17:28.438Z,97451.03
2023-04-15T23:19:58.319Z,97456.53
2023-04-15T23:22:26.776Z,97456.53
2023-04-15T23:24:55.259Z,97449.41
2023-04-15T23:27:23.730Z,97460.41
2023-04-15T23:29:52.164Z,97461.56
2023-04-15T23:32:20.730Z,97458.78
2023-04-15T23:34:49.880Z,97463.19
2023-04-15T23:37:19.833Z,97464.31
2023-04-15T23:39:48.297Z,97457.97
2023-04-15T23:42:17.112Z,97462.69
2023-04-15T23:44:45.679Z,97466.25
2023-04-15T23:47:14.108Z,97469.00
2023-04-15T23:49:42.453Z,97470.94
2023-04-15T23:52:10.866Z,97468.19
2023-04-15T23:54:40.956Z,97468.19
2023-04-15T23:57:09.291Z,97468.50
2023-04-15T23:59:37.689Z,97466.56
